메인 페이지
METAR-TAF:

METAR-TAF

공항 :

바하왈푸르, 파키스탄

위도: 29-20-53N, 경도: 71-43-04E, 고도: 119m

METAR: 누락

시각: 07:06 (02:06 UTC)

예보

예보는 4 시간 21분 전, 21:45시(UTC)에 발표되었습니다.
예보 대상 시간: 25일 00시부터 25일 18시까지 (UTC)
10kt
시정: 4000m
고도 12000ft 상공 구름 조금
연무
확률 30% :
일시적
25일 00시부터 25일 04시까지 (UTC)
kt
시정: 2000m
연무
일시적
25일 12시부터 25일 16시까지 (UTC)
남서10kt
시정: 2000m
고도 12000ft 상공 구름 조금
, 황사

TAF: OPBW 242145Z 2500/2518 18010KT 4000 HZ FEW120 TN29/2501Z TX41/2510Z PROB30 TEMPO 2500/2504 00000KT 2000 HZ NSC TEMPO 2512/2516 23010KT 2000 BC DU FEW120

4,000개 이상의 공항 관측 자료 및 예보 (METAR 및 TAF 보고).

지도상에서 검색 가능한 기상관측소가 노란 점과 빨간 점으로 표시되어 있습니다.

기상관측소 명을 보려면 표시 위로 마우스를 이동하세요.

날씨 관측과 예보를 보려면 클릭하세요.

지도 변경 : 확대하려면 엑스 표시가 있는 녹색 버튼, 축소하려면 빼기 표시가 있는 녹색 버튼, 다음 페이지의 지도를 보려면 녹색 화살표를 클릭하세요.


METAR-TAF: